sensor_id;sensor_type;location;lat;lon;timestamp;P1;durP1;ratioP1;P2;durP2;ratioP2
53751;SDS011;41095;53.090;6.692;2022-09-01T00:00:01;4.53;;;2.45;;
53751;SDS011;41095;53.090;6.692;2022-09-01T00:02:32;2.58;;;2.00;;
53751;SDS011;41095;53.090;6.692;2022-09-01T00:04:58;3.85;;;2.00;;
53751;SDS011;41095;53.090;6.692;2022-09-01T00:07:25;2.92;;;1.80;;
53751;SDS011;41095;53.090;6.692;2022-09-01T00:09:54;2.60;;;2.10;;
53751;SDS011;41095;53.090;6.692;2022-09-01T00:12:19;2.97;;;2.17;;
53751;SDS011;41095;53.090;6.692;2022-09-01T00:14:47;3.22;;;1.88;;
53751;SDS011;41095;53.090;6.692;2022-09-01T00:17:13;3.38;;;1.98;;
53751;SDS011;41095;53.090;6.692;2022-09-01T00:19:39;2.60;;;1.55;;
53751;SDS011;41095;53.090;6.692;2022-09-01T00:22:05;4.70;;;1.80;;
53751;SDS011;41095;53.090;6.692;2022-09-01T00:24:32;2.33;;;2.03;;
53751;SDS011;41095;53.090;6.692;2022-09-01T00:26:57;1.88;;;1.40;;
53751;SDS011;41095;53.090;6.692;2022-09-01T00:29:23;2.45;;;1.25;;
53751;SDS011;41095;53.090;6.692;2022-09-01T00:31:50;2.03;;;1.52;;
53751;SDS011;41095;53.090;6.692;2022-09-01T00:34:16;3.63;;;1.50;;
53751;SDS011;41095;53.090;6.692;2022-09-01T00:36:42;2.42;;;1.15;;
53751;SDS011;41095;53.090;6.692;2022-09-01T00:39:08;3.42;;;1.52;;
53751;SDS011;41095;53.090;6.692;2022-09-01T00:41:35;3.15;;;1.30;;
53751;SDS011;41095;53.090;6.692;2022-09-01T00:44:04;1.40;;;1.30;;
53751;SDS011;41095;53.090;6.692;2022-09-01T00:46:33;1.48;;;1.27;;
53751;SDS011;41095;53.090;6.692;2022-09-01T00:51:54;1.45;;;1.35;;
53751;SDS011;41095;53.090;6.692;2022-09-01T00:54:24;1.63;;;1.27;;
53751;SDS011;41095;53.090;6.692;2022-09-01T00:56:53;1.80;;;1.38;;
53751;SDS011;41095;53.090;6.692;2022-09-01T00:59:20;1.15;;;1.08;;
53751;SDS011;41095;53.090;6.692;2022-09-01T01:01:47;1.40;;;1.27;;
53751;SDS011;41095;53.090;6.692;2022-09-01T01:04:13;1.35;;;1.25;;
53751;SDS011;41095;53.090;6.692;2022-09-01T01:06:40;1.50;;;1.40;;
53751;SDS011;41095;53.090;6.692;2022-09-01T01:09:16;1.50;;;1.30;;
53751;SDS011;41095;53.090;6.692;2022-09-01T01:11:43;1.48;;;1.20;;
53751;SDS011;41095;53.090;6.692;2022-09-01T01:14:12;2.47;;;1.50;;
53751;SDS011;41095;53.090;6.692;2022-09-01T01:16:42;3.55;;;1.42;;
53751;SDS011;41095;53.090;6.692;2022-09-01T01:22:11;1.38;;;1.13;;
53751;SDS011;41095;53.090;6.692;2022-09-01T01:25:01;1.20;;;1.10;;
53751;SDS011;41095;53.090;6.692;2022-09-01T01:27:33;1.05;;;1.05;;
53751;SDS011;41095;53.090;6.692;2022-09-01T01:30:03;1.43;;;1.20;;
53751;SDS011;41095;53.090;6.692;2022-09-01T01:32:34;1.20;;;1.10;;
53751;SDS011;41095;53.090;6.692;2022-09-01T01:35:00;1.15;;;1.00;;
53751;SDS011;41095;53.090;6.692;2022-09-01T01:37:30;0.90;;;0.90;;
53751;SDS011;41095;53.090;6.692;2022-09-01T01:39:58;3.85;;;1.70;;
53751;SDS011;41095;53.090;6.692;2022-09-01T01:42:24;1.30;;;1.20;;
53751;SDS011;41095;53.090;6.692;2022-09-01T01:44:50;2.35;;;1.15;;
53751;SDS011;41095;53.090;6.692;2022-09-01T01:47:16;1.20;;;1.10;;
53751;SDS011;41095;53.090;6.692;2022-09-01T01:49:44;3.08;;;1.33;;
53751;SDS011;41095;53.090;6.692;2022-09-01T01:52:10;1.25;;;1.17;;
53751;SDS011;41095;53.090;6.692;2022-09-01T01:54:40;1.13;;;1.00;;
53751;SDS011;41095;53.090;6.692;2022-09-01T01:57:07;2.33;;;1.10;;
53751;SDS011;41095;53.090;6.692;2022-09-01T01:59:33;1.55;;;1.30;;
53751;SDS011;41095;53.090;6.692;2022-09-01T02:01:59;1.75;;;1.05;;
53751;SDS011;41095;53.090;6.692;2022-09-01T02:04:32;1.80;;;1.23;;
53751;SDS011;41095;53.090;6.692;2022-09-01T02:06:58;1.30;;;1.17;;
53751;SDS011;41095;53.090;6.692;2022-09-01T02:09:24;1.52;;;1.13;;
53751;SDS011;41095;53.090;6.692;2022-09-01T02:11:50;1.35;;;1.25;;
53751;SDS011;41095;53.090;6.692;2022-09-01T02:14:19;1.60;;;1.45;;
53751;SDS011;41095;53.090;6.692;2022-09-01T02:16:45;1.00;;;1.00;;
53751;SDS011;41095;53.090;6.692;2022-09-01T02:19:11;1.40;;;1.30;;
53751;SDS011;41095;53.090;6.692;2022-09-01T02:21:37;3.50;;;1.40;;
53751;SDS011;41095;53.090;6.692;2022-09-01T02:24:09;1.60;;;1.40;;
53751;SDS011;41095;53.090;6.692;2022-09-01T02:26:40;0.95;;;0.95;;
53751;SDS011;41095;53.090;6.692;2022-09-01T02:29:11;0.85;;;0.82;;
53751;SDS011;41095;53.090;6.692;2022-09-01T02:31:47;1.50;;;1.40;;
53751;SDS011;41095;53.090;6.692;2022-09-01T02:34:14;1.23;;;1.10;;
53751;SDS011;41095;53.090;6.692;2022-09-01T02:36:44;3.20;;;1.52;;
53751;SDS011;41095;53.090;6.692;2022-09-01T02:39:13;1.50;;;1.40;;
53751;SDS011;41095;53.090;6.692;2022-09-01T02:41:39;1.50;;;1.40;;
53751;SDS011;41095;53.090;6.692;2022-09-01T02:44:05;1.48;;;1.38;;
53751;SDS011;41095;53.090;6.692;2022-09-01T02:46:42;1.75;;;1.60;;
53751;SDS011;41095;53.090;6.692;2022-09-01T02:49:10;2.97;;;1.65;;
53751;SDS011;41095;53.090;6.692;2022-09-01T02:51:44;1.42;;;1.33;;
53751;SDS011;41095;53.090;6.692;2022-09-01T02:54:12;1.58;;;1.30;;
53751;SDS011;41095;53.090;6.692;2022-09-01T02:56:46;2.00;;;1.40;;
53751;SDS011;41095;53.090;6.692;2022-09-01T02:59:13;1.60;;;1.40;;
53751;SDS011;41095;53.090;6.692;2022-09-01T03:01:40;1.60;;;1.50;;
53751;SDS011;41095;53.090;6.692;2022-09-01T03:04:07;1.33;;;1.23;;
53751;SDS011;41095;53.090;6.692;2022-09-01T03:06:36;7.97;;;1.38;;
53751;SDS011;41095;53.090;6.692;2022-09-01T03:09:04;2.08;;;1.30;;
53751;SDS011;41095;53.090;6.692;2022-09-01T03:11:33;1.85;;;1.75;;
53751;SDS011;41095;53.090;6.692;2022-09-01T03:14:02;1.85;;;1.60;;
53751;SDS011;41095;53.090;6.692;2022-09-01T03:16:29;2.15;;;1.40;;
53751;SDS011;41095;53.090;6.692;2022-09-01T03:18:55;3.47;;;1.90;;
53751;SDS011;41095;53.090;6.692;2022-09-01T03:21:21;2.17;;;1.60;;
53751;SDS011;41095;53.090;6.692;2022-09-01T03:23:48;1.90;;;1.60;;
53751;SDS011;41095;53.090;6.692;2022-09-01T03:26:15;3.25;;;1.60;;
53751;SDS011;41095;53.090;6.692;2022-09-01T03:28:43;1.50;;;1.40;;
53751;SDS011;41095;53.090;6.692;2022-09-01T03:31:09;3.90;;;1.70;;
53751;SDS011;41095;53.090;6.692;2022-09-01T03:33:36;2.42;;;1.88;;
53751;SDS011;41095;53.090;6.692;2022-09-01T03:36:03;1.40;;;1.30;;
53751;SDS011;41095;53.090;6.692;2022-09-01T03:38:29;2.13;;;1.50;;
53751;SDS011;41095;53.090;6.692;2022-09-01T03:40:59;1.90;;;1.73;;
53751;SDS011;41095;53.090;6.692;2022-09-01T03:43:28;1.70;;;1.60;;
53751;SDS011;41095;53.090;6.692;2022-09-01T03:45:56;1.83;;;1.70;;
53751;SDS011;41095;53.090;6.692;2022-09-01T03:48:24;1.67;;;1.58;;
53751;SDS011;41095;53.090;6.692;2022-09-01T03:50:53;1.70;;;1.60;;
53751;SDS011;41095;53.090;6.692;2022-09-01T03:53:20;2.05;;;1.50;;
53751;SDS011;41095;53.090;6.692;2022-09-01T03:55:48;1.60;;;1.50;;
53751;SDS011;41095;53.090;6.692;2022-09-01T03:58:15;2.83;;;1.60;;
53751;SDS011;41095;53.090;6.692;2022-09-01T04:00:45;1.58;;;1.33;;
53751;SDS011;41095;53.090;6.692;2022-09-01T04:03:13;1.25;;;1.23;;
53751;SDS011;41095;53.090;6.692;2022-09-01T04:05:46;3.10;;;1.70;;
53751;SDS011;41095;53.090;6.692;2022-09-01T04:08:13;2.22;;;1.80;;
53751;SDS011;41095;53.090;6.692;2022-09-01T04:10:59;1.95;;;1.60;;
53751;SDS011;41095;53.090;6.692;2022-09-01T04:13:34;1.73;;;1.63;;
53751;SDS011;41095;53.090;6.692;2022-09-01T04:16:02;1.60;;;1.50;;
53751;SDS011;41095;53.090;6.692;2022-09-01T04:18:55;2.10;;;1.90;;
53751;SDS011;41095;53.090;6.692;2022-09-01T04:21:20;1.52;;;1.42;;
53751;SDS011;41095;53.090;6.692;2022-09-01T04:23:46;2.35;;;1.80;;
53751;SDS011;41095;53.090;6.692;2022-09-01T04:26:13;2.42;;;1.75;;
53751;SDS011;41095;53.090;6.692;2022-09-01T04:28:43;3.08;;;1.83;;
53751;SDS011;41095;53.090;6.692;2022-09-01T04:31:15;2.92;;;1.60;;
53751;SDS011;41095;53.090;6.692;2022-09-01T04:33:44;2.55;;;1.63;;
53751;SDS011;41095;53.090;6.692;2022-09-01T04:36:16;2.70;;;1.73;;
53751;SDS011;41095;53.090;6.692;2022-09-01T04:38:51;2.33;;;2.10;;
53751;SDS011;41095;53.090;6.692;2022-09-01T04:41:22;2.30;;;2.10;;
53751;SDS011;41095;53.090;6.692;2022-09-01T04:43:52;2.83;;;2.13;;
53751;SDS011;41095;53.090;6.692;2022-09-01T04:46:22;3.25;;;2.17;;
53751;SDS011;41095;53.090;6.692;2022-09-01T04:48:52;4.82;;;2.63;;
53751;SDS011;41095;53.090;6.692;2022-09-01T04:51:19;3.90;;;2.35;;
53751;SDS011;41095;53.090;6.692;2022-09-01T04:53:45;4.60;;;2.55;;
53751;SDS011;41095;53.090;6.692;2022-09-01T04:56:16;2.00;;;1.90;;
53751;SDS011;41095;53.090;6.692;2022-09-01T04:58:48;2.17;;;1.98;;
53751;SDS011;41095;53.090;6.692;2022-09-01T05:01:18;2.20;;;1.98;;
53751;SDS011;41095;53.090;6.692;2022-09-01T05:03:49;2.15;;;1.80;;
53751;SDS011;41095;53.090;6.692;2022-09-01T05:06:23;2.47;;;2.17;;
53751;SDS011;41095;53.090;6.692;2022-09-01T05:08:49;2.30;;;2.10;;
53751;SDS011;41095;53.090;6.692;2022-09-01T05:11:16;2.50;;;2.30;;
53751;SDS011;41095;53.090;6.692;2022-09-01T05:13:43;3.25;;;2.05;;
53751;SDS011;41095;53.090;6.692;2022-09-01T05:16:11;3.50;;;2.30;;
53751;SDS011;41095;53.090;6.692;2022-09-01T05:18:39;5.45;;;2.15;;
53751;SDS011;41095;53.090;6.692;2022-09-01T05:21:14;3.50;;;2.25;;
53751;SDS011;41095;53.090;6.692;2022-09-01T05:23:42;2.60;;;2.40;;
53751;SDS011;41095;53.090;6.692;2022-09-01T05:26:13;2.40;;;2.20;;
53751;SDS011;41095;53.090;6.692;2022-09-01T05:28:49;2.20;;;2.00;;
53751;SDS011;41095;53.090;6.692;2022-09-01T05:31:21;3.28;;;2.70;;
53751;SDS011;41095;53.090;6.692;2022-09-01T05:33:47;2.45;;;2.15;;
53751;SDS011;41095;53.090;6.692;2022-09-01T05:36:19;2.63;;;2.42;;
53751;SDS011;41095;53.090;6.692;2022-09-01T05:38:47;4.93;;;2.80;;
53751;SDS011;41095;53.090;6.692;2022-09-01T05:41:16;5.68;;;3.75;;
53751;SDS011;41095;53.090;6.692;2022-09-01T05:43:44;5.85;;;2.70;;
53751;SDS011;41095;53.090;6.692;2022-09-01T05:46:16;4.03;;;2.55;;
53751;SDS011;41095;53.090;6.692;2022-09-01T05:48:45;5.65;;;2.42;;
53751;SDS011;41095;53.090;6.692;2022-09-01T05:51:13;2.83;;;2.60;;
53751;SDS011;41095;53.090;6.692;2022-09-01T05:53:42;2.60;;;2.40;;
53751;SDS011;41095;53.090;6.692;2022-09-01T05:56:08;3.15;;;2.35;;
53751;SDS011;41095;53.090;6.692;2022-09-01T05:58:37;3.33;;;2.75;;
53751;SDS011;41095;53.090;6.692;2022-09-01T06:01:04;4.18;;;3.35;;
53751;SDS011;41095;53.090;6.692;2022-09-01T06:03:31;3.15;;;2.85;;
53751;SDS011;41095;53.090;6.692;2022-09-01T06:06:01;3.20;;;2.95;;
53751;SDS011;41095;53.090;6.692;2022-09-01T06:08:32;3.42;;;2.85;;
53751;SDS011;41095;53.090;6.692;2022-09-01T06:10:57;2.60;;;2.40;;
53751;SDS011;41095;53.090;6.692;2022-09-01T06:13:23;3.17;;;2.30;;
53751;SDS011;41095;53.090;6.692;2022-09-01T06:15:49;3.20;;;2.75;;
53751;SDS011;41095;53.090;6.692;2022-09-01T06:18:18;2.85;;;2.50;;
53751;SDS011;41095;53.090;6.692;2022-09-01T06:20:46;6.55;;;2.80;;
53751;SDS011;41095;53.090;6.692;2022-09-01T06:23:13;3.05;;;2.83;;
53751;SDS011;41095;53.090;6.692;2022-09-01T06:25:41;2.50;;;2.30;;
53751;SDS011;41095;53.090;6.692;2022-09-01T06:28:12;2.72;;;2.53;;
53751;SDS011;41095;53.090;6.692;2022-09-01T06:30:39;3.00;;;2.60;;
53751;SDS011;41095;53.090;6.692;2022-09-01T06:33:05;3.33;;;2.92;;
53751;SDS011;41095;53.090;6.692;2022-09-01T06:35:35;2.78;;;2.55;;
53751;SDS011;41095;53.090;6.692;2022-09-01T06:38:01;4.50;;;2.78;;
53751;SDS011;41095;53.090;6.692;2022-09-01T06:40:29;4.18;;;2.60;;
53751;SDS011;41095;53.090;6.692;2022-09-01T06:42:54;3.75;;;2.60;;
53751;SDS011;41095;53.090;6.692;2022-09-01T06:45:22;5.57;;;2.28;;
53751;SDS011;41095;53.090;6.692;2022-09-01T06:47:48;2.22;;;2.03;;
53751;SDS011;41095;53.090;6.692;2022-09-01T06:50:17;4.93;;;2.53;;
53751;SDS011;41095;53.090;6.692;2022-09-01T06:52:46;3.78;;;2.90;;
53751;SDS011;41095;53.090;6.692;2022-09-01T06:55:14;4.40;;;2.90;;
53751;SDS011;41095;53.090;6.692;2022-09-01T06:57:41;3.70;;;2.92;;
53751;SDS011;41095;53.090;6.692;2022-09-01T07:00:13;3.20;;;2.67;;
53751;SDS011;41095;53.090;6.692;2022-09-01T07:02:45;4.40;;;2.58;;
53751;SDS011;41095;53.090;6.692;2022-09-01T07:05:17;3.90;;;2.65;;
53751;SDS011;41095;53.090;6.692;2022-09-01T07:07:47;2.72;;;2.45;;
53751;SDS011;41095;53.090;6.692;2022-09-01T07:10:16;5.25;;;2.78;;
53751;SDS011;41095;53.090;6.692;2022-09-01T07:12:47;3.08;;;2.25;;
53751;SDS011;41095;53.090;6.692;2022-09-01T07:15:14;4.28;;;2.10;;
53751;SDS011;41095;53.090;6.692;2022-09-01T07:17:42;3.05;;;2.03;;
53751;SDS011;41095;53.090;6.692;2022-09-01T07:20:13;3.17;;;2.15;;
53751;SDS011;41095;53.090;6.692;2022-09-01T07:22:40;2.38;;;1.73;;
53751;SDS011;41095;53.090;6.692;2022-09-01T07:25:06;2.40;;;2.08;;
53751;SDS011;41095;53.090;6.692;2022-09-01T07:27:32;4.15;;;1.88;;
53751;SDS011;41095;53.090;6.692;2022-09-01T07:29:57;3.08;;;2.38;;
53751;SDS011;41095;53.090;6.692;2022-09-01T07:32:24;2.38;;;1.90;;
53751;SDS011;41095;53.090;6.692;2022-09-01T07:34:50;3.05;;;2.25;;
53751;SDS011;41095;53.090;6.692;2022-09-01T07:37:16;4.85;;;1.90;;
53751;SDS011;41095;53.090;6.692;2022-09-01T07:39:42;2.97;;;2.40;;
53751;SDS011;41095;53.090;6.692;2022-09-01T07:42:11;3.85;;;1.83;;
53751;SDS011;41095;53.090;6.692;2022-09-01T07:44:36;3.25;;;2.08;;
53751;SDS011;41095;53.090;6.692;2022-09-01T07:47:03;3.38;;;2.05;;
53751;SDS011;41095;53.090;6.692;2022-09-01T07:49:33;4.78;;;2.47;;
53751;SDS011;41095;53.090;6.692;2022-09-01T07:52:02;1.70;;;1.55;;
53751;SDS011;41095;53.090;6.692;2022-09-01T07:54:31;2.35;;;1.52;;
53751;SDS011;41095;53.090;6.692;2022-09-01T07:56:58;2.13;;;1.70;;
53751;SDS011;41095;53.090;6.692;2022-09-01T07:59:25;1.65;;;1.25;;
53751;SDS011;41095;53.090;6.692;2022-09-01T08:01:51;2.17;;;1.60;;
53751;SDS011;41095;53.090;6.692;2022-09-01T08:04:17;2.80;;;1.45;;
53751;SDS011;41095;53.090;6.692;2022-09-01T08:06:46;2.42;;;2.00;;
53751;SDS011;41095;53.090;6.692;2022-09-01T08:09:12;2.13;;;1.75;;
53751;SDS011;41095;53.090;6.692;2022-09-01T08:11:38;1.92;;;1.50;;
53751;SDS011;41095;53.090;6.692;2022-09-01T08:14:05;2.35;;;1.33;;
53751;SDS011;41095;53.090;6.692;2022-09-01T08:16:31;2.75;;;1.90;;
53751;SDS011;41095;53.090;6.692;2022-09-01T08:18:57;2.60;;;1.73;;
53751;SDS011;41095;53.090;6.692;2022-09-01T08:21:23;1.77;;;1.50;;
53751;SDS011;41095;53.090;6.692;2022-09-01T08:23:50;3.90;;;1.58;;
53751;SDS011;41095;53.090;6.692;2022-09-01T08:26:18;3.40;;;2.00;;
53751;SDS011;41095;53.090;6.692;2022-09-01T08:28:47;2.78;;;1.80;;
53751;SDS011;41095;53.090;6.692;2022-09-01T08:31:13;4.90;;;2.10;;
53751;SDS011;41095;53.090;6.692;2022-09-01T08:33:42;3.75;;;1.75;;
53751;SDS011;41095;53.090;6.692;2022-09-01T08:36:10;4.63;;;1.88;;
53751;SDS011;41095;53.090;6.692;2022-09-01T08:38:38;3.25;;;1.65;;
53751;SDS011;41095;53.090;6.692;2022-09-01T08:41:05;3.92;;;1.63;;
53751;SDS011;41095;53.090;6.692;2022-09-01T08:49:27;4.10;;;1.90;;
53751;SDS011;41095;53.090;6.692;2022-09-01T08:52:01;5.18;;;1.33;;
53751;SDS011;41095;53.090;6.692;2022-09-01T08:54:44;2.63;;;1.67;;
53751;SDS011;41095;53.090;6.692;2022-09-01T08:57:20;2.88;;;1.70;;
53751;SDS011;41095;53.090;6.692;2022-09-01T08:59:51;4.43;;;1.50;;
53751;SDS011;41095;53.090;6.692;2022-09-01T09:10:23;2.67;;;1.60;;
53751;SDS011;41095;53.090;6.692;2022-09-01T09:16:06;1.40;;;1.20;;
53751;SDS011;41095;53.090;6.692;2022-09-01T09:18:50;3.28;;;1.30;;
53751;SDS011;41095;53.090;6.692;2022-09-01T09:21:29;1.48;;;1.10;;
53751;SDS011;41095;53.090;6.692;2022-09-01T09:24:02;1.25;;;0.98;;
53751;SDS011;41095;53.090;6.692;2022-09-01T09:26:35;1.02;;;1.00;;
53751;SDS011;41095;53.090;6.692;2022-09-01T09:29:01;0.73;;;0.70;;
53751;SDS011;41095;53.090;6.692;2022-09-01T09:31:34;1.10;;;0.68;;
53751;SDS011;41095;53.090;6.692;2022-09-01T09:34:29;1.70;;;1.00;;
53751;SDS011;41095;53.090;6.692;2022-09-01T09:37:15;1.17;;;0.93;;
53751;SDS011;41095;53.090;6.692;2022-09-01T09:39:43;2.15;;;1.00;;
53751;SDS011;41095;53.090;6.692;2022-09-01T09:42:10;2.85;;;0.98;;
53751;SDS011;41095;53.090;6.692;2022-09-01T09:44:47;1.80;;;0.68;;
53751;SDS011;41095;53.090;6.692;2022-09-01T09:50:20;1.27;;;0.90;;
53751;SDS011;41095;53.090;6.692;2022-09-01T09:53:11;1.55;;;0.75;;
53751;SDS011;41095;53.090;6.692;2022-09-01T09:56:01;0.85;;;0.70;;
53751;SDS011;41095;53.090;6.692;2022-09-01T09:58:33;2.90;;;1.27;;
53751;SDS011;41095;53.090;6.692;2022-09-01T10:01:06;2.25;;;0.80;;
53751;SDS011;41095;53.090;6.692;2022-09-01T10:03:49;1.52;;;0.82;;
53751;SDS011;41095;53.090;6.692;2022-09-01T10:08:59;0.90;;;0.75;;
53751;SDS011;41095;53.090;6.692;2022-09-01T10:11:41;1.52;;;0.70;;
53751;SDS011;41095;53.090;6.692;2022-09-01T10:14:10;1.73;;;0.70;;
53751;SDS011;41095;53.090;6.692;2022-09-01T10:19:10;2.78;;;0.90;;
53751;SDS011;41095;53.090;6.692;2022-09-01T10:21:37;1.33;;;1.00;;
53751;SDS011;41095;53.090;6.692;2022-09-01T10:24:28;1.23;;;0.68;;
53751;SDS011;41095;53.090;6.692;2022-09-01T10:26:58;1.45;;;1.00;;
53751;SDS011;41095;53.090;6.692;2022-09-01T10:31:57;0.98;;;0.50;;
53751;SDS011;41095;53.090;6.692;2022-09-01T10:34:24;2.90;;;0.85;;
53751;SDS011;41095;53.090;6.692;2022-09-01T10:36:56;3.50;;;0.80;;
53751;SDS011;41095;53.090;6.692;2022-09-01T10:39:23;2.10;;;0.80;;
53751;SDS011;41095;53.090;6.692;2022-09-01T10:41:55;2.85;;;0.77;;
53751;SDS011;41095;53.090;6.692;2022-09-01T10:44:34;2.03;;;0.75;;
53751;SDS011;41095;53.090;6.692;2022-09-01T10:50:02;1.13;;;0.57;;
53751;SDS011;41095;53.090;6.692;2022-09-01T10:55:25;0.85;;;0.85;;
53751;SDS011;41095;53.090;6.692;2022-09-01T11:01:00;0.80;;;0.80;;
53751;SDS011;41095;53.090;6.692;2022-09-01T11:03:34;1.52;;;0.82;;
53751;SDS011;41095;53.090;6.692;2022-09-01T11:06:30;0.95;;;0.68;;
53751;SDS011;41095;53.090;6.692;2022-09-01T11:09:05;9.07;;;1.13;;
53751;SDS011;41095;53.090;6.692;2022-09-01T11:14:50;1.67;;;0.90;;
53751;SDS011;41095;53.090;6.692;2022-09-01T11:17:17;1.42;;;0.60;;
53751;SDS011;41095;53.090;6.692;2022-09-01T11:19:56;2.47;;;0.82;;
53751;SDS011;41095;53.090;6.692;2022-09-01T11:22:26;1.67;;;0.80;;
53751;SDS011;41095;53.090;6.692;2022-09-01T11:25:09;1.95;;;0.95;;
53751;SDS011;41095;53.090;6.692;2022-09-01T11:28:00;2.10;;;0.85;;
53751;SDS011;41095;53.090;6.692;2022-09-01T11:30:33;1.48;;;0.90;;
53751;SDS011;41095;53.090;6.692;2022-09-01T11:35:44;1.55;;;0.82;;
53751;SDS011;41095;53.090;6.692;2022-09-01T11:38:11;1.52;;;0.70;;
53751;SDS011;41095;53.090;6.692;2022-09-01T11:40:40;4.65;;;0.80;;
53751;SDS011;41095;53.090;6.692;2022-09-01T11:43:08;0.60;;;0.60;;
53751;SDS011;41095;53.090;6.692;2022-09-01T11:45:49;3.40;;;0.73;;
53751;SDS011;41095;53.090;6.692;2022-09-01T11:48:44;1.33;;;0.77;;
53751;SDS011;41095;53.090;6.692;2022-09-01T11:51:11;1.00;;;0.80;;
53751;SDS011;41095;53.090;6.692;2022-09-01T11:53:36;1.30;;;0.70;;
53751;SDS011;41095;53.090;6.692;2022-09-01T11:56:18;1.80;;;0.70;;
53751;SDS011;41095;53.090;6.692;2022-09-01T11:58:49;0.95;;;0.93;;
53751;SDS011;41095;53.090;6.692;2022-09-01T12:03:54;1.30;;;0.80;;
53751;SDS011;41095;53.090;6.692;2022-09-01T12:06:24;1.75;;;0.90;;
53751;SDS011;41095;53.090;6.692;2022-09-01T12:08:56;2.15;;;0.80;;
53751;SDS011;41095;53.090;6.692;2022-09-01T12:11:25;0.80;;;0.45;;
53751;SDS011;41095;53.090;6.692;2022-09-01T12:14:00;1.40;;;0.90;;
53751;SDS011;41095;53.090;6.692;2022-09-01T12:16:28;1.00;;;0.63;;
53751;SDS011;41095;53.090;6.692;2022-09-01T12:18:56;1.17;;;0.70;;
53751;SDS011;41095;53.090;6.692;2022-09-01T12:21:33;1.58;;;0.70;;
53751;SDS011;41095;53.090;6.692;2022-09-01T12:26:42;3.30;;;0.80;;
53751;SDS011;41095;53.090;6.692;2022-09-01T12:29:09;1.48;;;0.70;;
53751;SDS011;41095;53.090;6.692;2022-09-01T12:31:38;1.33;;;0.90;;
53751;SDS011;41095;53.090;6.692;2022-09-01T12:39:40;1.90;;;0.85;;
53751;SDS011;41095;53.090;6.692;2022-09-01T12:52:26;2.00;;;0.70;;
53751;SDS011;41095;53.090;6.692;2022-09-01T12:57:31;0.80;;;0.70;;
53751;SDS011;41095;53.090;6.692;2022-09-01T13:02:39;1.90;;;0.95;;
53751;SDS011;41095;53.090;6.692;2022-09-01T13:07:53;3.97;;;0.85;;
53751;SDS011;41095;53.090;6.692;2022-09-01T13:10:20;0.60;;;0.60;;
53751;SDS011;41095;53.090;6.692;2022-09-01T13:12:49;0.52;;;0.52;;
53751;SDS011;41095;53.090;6.692;2022-09-01T13:15:16;0.82;;;0.70;;
53751;SDS011;41095;53.090;6.692;2022-09-01T13:17:42;0.63;;;0.63;;
53751;SDS011;41095;53.090;6.692;2022-09-01T13:20:08;0.90;;;0.65;;
53751;SDS011;41095;53.090;6.692;2022-09-01T13:22:36;0.65;;;0.63;;
53751;SDS011;41095;53.090;6.692;2022-09-01T13:25:03;0.90;;;0.73;;
53751;SDS011;41095;53.090;6.692;2022-09-01T13:27:29;0.65;;;0.65;;
53751;SDS011;41095;53.090;6.692;2022-09-01T13:29:55;2.60;;;1.08;;
53751;SDS011;41095;53.090;6.692;2022-09-01T13:32:21;1.10;;;0.90;;
53751;SDS011;41095;53.090;6.692;2022-09-01T13:34:48;1.27;;;0.80;;
53751;SDS011;41095;53.090;6.692;2022-09-01T13:37:16;1.20;;;0.80;;
53751;SDS011;41095;53.090;6.692;2022-09-01T13:39:42;2.17;;;0.88;;
53751;SDS011;41095;53.090;6.692;2022-09-01T13:42:08;1.10;;;0.80;;
53751;SDS011;41095;53.090;6.692;2022-09-01T13:44:34;1.77;;;0.90;;
53751;SDS011;41095;53.090;6.692;2022-09-01T13:47:00;1.92;;;1.00;;
53751;SDS011;41095;53.090;6.692;2022-09-01T13:49:25;2.08;;;1.00;;
53751;SDS011;41095;53.090;6.692;2022-09-01T13:51:51;0.70;;;0.70;;
53751;SDS011;41095;53.090;6.692;2022-09-01T13:54:18;0.52;;;0.52;;
53751;SDS011;41095;53.090;6.692;2022-09-01T13:56:44;4.15;;;0.80;;
53751;SDS011;41095;53.090;6.692;2022-09-01T13:59:10;1.13;;;0.70;;
53751;SDS011;41095;53.090;6.692;2022-09-01T14:01:36;1.52;;;0.60;;
53751;SDS011;41095;53.090;6.692;2022-09-01T14:04:02;0.90;;;0.57;;
53751;SDS011;41095;53.090;6.692;2022-09-01T14:06:30;1.45;;;0.82;;
53751;SDS011;41095;53.090;6.692;2022-09-01T14:08:56;0.77;;;0.60;;
53751;SDS011;41095;53.090;6.692;2022-09-01T14:11:23;1.02;;;0.93;;
53751;SDS011;41095;53.090;6.692;2022-09-01T14:13:50;0.73;;;0.63;;
53751;SDS011;41095;53.090;6.692;2022-09-01T14:16:16;2.90;;;1.50;;
53751;SDS011;41095;53.090;6.692;2022-09-01T14:18:42;1.95;;;0.65;;
53751;SDS011;41095;53.090;6.692;2022-09-01T14:21:12;1.38;;;0.88;;
53751;SDS011;41095;53.090;6.692;2022-09-01T14:23:40;1.45;;;0.70;;
53751;SDS011;41095;53.090;6.692;2022-09-01T14:26:08;1.20;;;0.80;;
53751;SDS011;41095;53.090;6.692;2022-09-01T14:28:38;1.80;;;0.82;;
53751;SDS011;41095;53.090;6.692;2022-09-01T14:31:09;3.40;;;0.90;;
53751;SDS011;41095;53.090;6.692;2022-09-01T14:33:39;2.28;;;0.85;;
53751;SDS011;41095;53.090;6.692;2022-09-01T14:36:06;1.08;;;1.00;;
53751;SDS011;41095;53.090;6.692;2022-09-01T14:38:33;0.98;;;0.88;;
53751;SDS011;41095;53.090;6.692;2022-09-01T14:40:59;1.00;;;0.63;;
53751;SDS011;41095;53.090;6.692;2022-09-01T14:43:26;1.40;;;0.68;;
53751;SDS011;41095;53.090;6.692;2022-09-01T14:46:02;0.77;;;0.68;;
53751;SDS011;41095;53.090;6.692;2022-09-01T14:48:33;3.75;;;1.02;;
53751;SDS011;41095;53.090;6.692;2022-09-01T14:50:59;3.42;;;1.35;;
53751;SDS011;41095;53.090;6.692;2022-09-01T14:53:25;3.25;;;0.65;;
53751;SDS011;41095;53.090;6.692;2022-09-01T14:55:53;0.85;;;0.85;;
53751;SDS011;41095;53.090;6.692;2022-09-01T14:58:20;1.08;;;0.70;;
53751;SDS011;41095;53.090;6.692;2022-09-01T15:00:46;2.08;;;0.80;;
53751;SDS011;41095;53.090;6.692;2022-09-01T15:03:12;1.95;;;0.80;;
53751;SDS011;41095;53.090;6.692;2022-09-01T15:05:38;3.03;;;1.08;;
53751;SDS011;41095;53.090;6.692;2022-09-01T15:08:04;2.95;;;0.80;;
53751;SDS011;41095;53.090;6.692;2022-09-01T15:10:31;0.63;;;0.63;;
53751;SDS011;41095;53.090;6.692;2022-09-01T15:12:58;2.28;;;0.60;;
53751;SDS011;41095;53.090;6.692;2022-09-01T15:15:26;1.17;;;0.60;;
53751;SDS011;41095;53.090;6.692;2022-09-01T15:17:53;2.35;;;0.82;;
53751;SDS011;41095;53.090;6.692;2022-09-01T15:20:19;6.05;;;1.00;;
53751;SDS011;41095;53.090;6.692;2022-09-01T15:23:05;2.17;;;0.60;;
53751;SDS011;41095;53.090;6.692;2022-09-01T15:25:31;0.52;;;0.50;;
53751;SDS011;41095;53.090;6.692;2022-09-01T15:27:57;0.60;;;0.60;;
53751;SDS011;41095;53.090;6.692;2022-09-01T15:30:23;0.65;;;0.50;;
53751;SDS011;41095;53.090;6.692;2022-09-01T15:32:49;1.25;;;0.80;;
53751;SDS011;41095;53.090;6.692;2022-09-01T15:35:17;1.77;;;0.75;;
53751;SDS011;41095;53.090;6.692;2022-09-01T15:37:47;0.82;;;0.60;;
53751;SDS011;41095;53.090;6.692;2022-09-01T15:40:14;0.45;;;0.45;;
53751;SDS011;41095;53.090;6.692;2022-09-01T15:42:42;1.17;;;0.70;;
53751;SDS011;41095;53.090;6.692;2022-09-01T15:45:13;0.60;;;0.57;;
53751;SDS011;41095;53.090;6.692;2022-09-01T15:47:40;1.95;;;0.73;;
53751;SDS011;41095;53.090;6.692;2022-09-01T15:50:07;2.72;;;0.77;;
53751;SDS011;41095;53.090;6.692;2022-09-01T15:55:16;2.38;;;0.90;;
53751;SDS011;41095;53.090;6.692;2022-09-01T15:57:44;0.77;;;0.50;;
53751;SDS011;41095;53.090;6.692;2022-09-01T16:00:11;1.02;;;0.70;;
53751;SDS011;41095;53.090;6.692;2022-09-01T16:02:37;2.70;;;0.70;;
53751;SDS011;41095;53.090;6.692;2022-09-01T16:05:03;2.70;;;0.90;;
53751;SDS011;41095;53.090;6.692;2022-09-01T16:07:29;1.25;;;0.70;;
53751;SDS011;41095;53.090;6.692;2022-09-01T16:09:55;1.02;;;0.70;;
53751;SDS011;41095;53.090;6.692;2022-09-01T16:12:22;0.93;;;0.50;;
53751;SDS011;41095;53.090;6.692;2022-09-01T16:14:50;0.80;;;0.50;;
53751;SDS011;41095;53.090;6.692;2022-09-01T16:17:21;2.40;;;0.90;;
53751;SDS011;41095;53.090;6.692;2022-09-01T16:20:05;0.82;;;0.63;;